Flight Track Log - Related Links

Times and Time Zones

All times are in EDT time to prevent confusion due to time zone crossing. See the N234GF flight status page for this flight to view local times or setup timezone preferences in your user account.

Time Position Orientation Groundspeed Altitude Reporting Facility
EDT Latitude Longitude Course Direction KTS MPH feet Rate Location/Type
Fri 03:13:52 PM 38.5081 -81.4414 346° North 252 290 8,800  Level Indianapolis Center
Fri 03:14:54 PM 38.5958 -81.4694 346° North 276 318 10,100 1,935 Climbing Indianapolis Center
Fri 03:15:56 PM 38.6639 -81.5042 338° Northwest 279 321 12,800 2,323 Climbing Indianapolis Center
Fri 03:16:58 PM 38.7456 -81.5375 342° North 299 344 14,900 2,226 Climbing Indianapolis Center
Fri 03:18:00 PM 38.8492 -81.5819 342° North 331 381 17,400 2,129 Climbing Indianapolis Center
Fri 03:19:02 PM 38.9400 -81.6206 342° North 341 392 19,300 1,935 Climbing Indianapolis Center
Fri 03:20:04 PM 39.0292 -81.6592 341° North 339 390 21,400 2,032 Climbing Indianapolis Center
Fri 03:21:06 PM 39.1192 -81.6972 342° North 341 392 23,500 1,887 Climbing Indianapolis Center
Fri 03:22:08 PM 39.2078 -81.7356 341° North 336 387 25,300 1,645 Climbing Indianapolis Center
Fri 03:23:10 PM 39.2986 -81.7742 342° North 342 394 26,900 1,694 Climbing Indianapolis Center
Fri 03:24:12 PM 39.4056 -81.8219 341° North 341 392 28,800 1,597 Climbing Indianapolis Center
Fri 03:25:14 PM 39.4967 -81.8581 343° North 341 392 30,200 1,065 Climbing Indianapolis Center
Fri 03:26:16 PM 39.5964 -81.8667 356° North 354 407 31,000 823 Climbing Indianapolis Center
Fri 03:27:18 PM 39.6989 -81.8822 353° North 371 427 31,900 919 Climbing Indianapolis Center
Fri 03:28:20 PM 39.7939 -81.9047 350° North 370 426 32,900 1,056 Climbing Indianapolis Center
Fri 03:29:23 PM 39.9164 -81.9300 351° North 371 427 34,100 1,056 Climbing Indianapolis Center
Fri 03:30:25 PM 40.0192 -81.9478 352° North 372 428 35,100 919 Climbing Indianapolis Center
Fri 03:31:27 PM 40.1147 -81.9817 345° North 359 413 36,000 435 Climbing Indianapolis Center
Fri 03:32:29 PM 40.2122 -82.0272 340° North 369 425 36,000  Level Indianapolis Center
Fri 03:33:31 PM 40.3267 -82.0822 340° North 389 448 36,000  Level Indianapolis Center
Fri 03:34:33 PM 40.4322 -82.1336 340° North 398 458 36,000  Level Indianapolis Center
Fri 03:35:35 PM 40.5394 -82.1831 341° North 403 464 36,000  Level Indianapolis Center
Fri 03:36:37 PM 40.6486 -82.2356 340° North 409 471 36,000  Level Indianapolis Center
Fri 03:37:39 PM 40.7558 -82.2881 340° North 407 468 36,000  Level Indianapolis Center
Fri 03:38:41 PM 40.8650 -82.3403 340° North 410 472 36,000  Level Indianapolis Center
Fri 03:39:43 PM 40.9728 -82.3903 341° North 408 470 36,000  Level Indianapolis Center
Fri 03:40:45 PM 41.0983 -82.4567 338° Northwest 406 467 36,000  Level Cleveland Center
Fri 03:41:45 PM 41.2039 -82.5039 341° North 406 467 36,000  Level Cleveland Center
Fri 03:42:45 PM 41.3072 -82.5567 339° North 401 461 36,000  Level Cleveland Center
Fri 03:43:45 PM 41.3981 -82.6039 339° North 401 461 36,000  Level Cleveland Center
Fri 03:44:45 PM 41.4994 -82.6514 341° North 388 447 36,000  Level Cleveland Center
Fri 03:45:45 PM 41.6006 -82.6992 341° North 388 447 36,000  Level Cleveland Center
Fri 03:46:45 PM 41.7081 -82.7528 340° North 383 441 36,000  Level Cleveland Center
Fri 03:47:45 PM 41.8092 -82.8006 341° North 383 441 36,000  Level Cleveland Center
Fri 03:48:45 PM 41.9083 -82.8486 340° North 383 441 36,000  Level Cleveland Center
Fri 03:49:45 PM 42.0075 -82.8997 339° North 383 441 36,000  Level Cleveland Center
Fri 03:50:45 PM 42.1086 -82.9511 339° North 383 441 36,000  Level Cleveland Center
Fri 03:51:45 PM 42.2075 -82.9997 340° North 383 441 36,000  Level Cleveland Center
Fri 03:52:45 PM 42.3067 -83.0511 339° North 383 441 36,000  Level Cleveland Center
Fri 03:53:45 PM 42.4056 -83.0972 341° North 383 441 36,000  Level Cleveland Center
Fri 03:54:45 PM 42.5044 -83.1517 338° Northwest 383 441 36,000  Level Cleveland Center
Fri 03:55:45 PM 42.6033 -83.2008 340° North 383 441 36,000  Level Cleveland Center
Fri 03:56:45 PM 42.7022 -83.2503 340° North 383 441 36,000  Level Cleveland Center
Fri 03:57:45 PM 42.8011 -83.3025 339° North 383 441 36,000  Level Cleveland Center
Fri 03:58:45 PM 42.8981 -83.3522 339° North 378 435 36,000  Level Cleveland Center
Fri 03:59:45 PM 42.9947 -83.4047 338° Northwest 378 435 36,000  Level Cleveland Center
Fri 04:00:45 PM 43.0894 -83.4517 340° North 373 429 36,000  Level Cleveland Center
Fri 04:01:45 PM 43.1881 -83.5047 339° North 368 423 36,000  Level Cleveland Center
Fri 04:02:45 PM 43.2767 -83.5489 340° North 368 423 36,000  Level Cleveland Center
Fri 04:04:34 PM 43.4597 -83.6439 339° North 378 435 36,000  Level Minneapolis Center
Fri 04:05:36 PM 43.5581 -83.6936 340° North 377 434 36,000  Level Minneapolis Center
Fri 04:06:38 PM 43.6547 -83.7461 339° North 376 433 36,000  Level Minneapolis Center
Fri 04:07:41 PM 43.7528 -83.7983 339° North 378 435 36,000 -816 Level Minneapolis Center
Fri 04:08:43 PM 43.8672 -83.8581 339° North 372 428 34,300 -1,790 Descending Minneapolis Center
Fri 04:09:45 PM 43.9650 -83.9103 339° North 368 423 32,300 -1,597 Descending Minneapolis Center
Fri 04:10:47 PM 44.0614 -83.9625 339° North 371 427 31,000 -1,452 Descending Minneapolis Center
Fri 04:11:49 PM 44.1594 -84.0156 339° North 377 434 29,300 -1,742 Descending Minneapolis Center
Fri 04:12:51 PM 44.2606 -84.0694 339° North 387 445 27,400 -1,839 Descending Minneapolis Center
Fri 04:13:53 PM 44.3608 -84.1239 339° North 389 448 25,500 -2,032 Descending Minneapolis Center
Fri 04:14:55 PM 44.4800 -84.1881 339° North 384 442 23,200 -2,032 Descending Minneapolis Center
Fri 04:15:57 PM 44.5756 -84.2400 339° North 376 433 21,300 -1,887 Descending Minneapolis Center
Fri 04:16:59 PM 44.6700 -84.2919 339° North 369 425 19,300 -1,776 Descending Minneapolis Center
Fri 04:18:02 PM 44.7664 -84.3475 338° Northwest 363 418 17,600 -1,824 Descending Minneapolis Center
Fri 04:19:04 PM 44.8658 -84.4025 339° North 359 413 15,500 -1,935 Descending Minneapolis Center
Fri 04:20:06 PM 44.9583 -84.4539 339° North 360 414 13,600 -1,984 Descending Minneapolis Center
Fri 04:21:08 PM 45.0536 -84.5069 339° North 345 397 11,400 -1,839 Descending Minneapolis Center
Fri 04:22:10 PM 45.1306 -84.5494 339° North 281 323 9,800 -1,452 Descending Minneapolis Center
Fri 04:23:12 PM 45.2006 -84.5894 338° Northwest 275 316 8,400 -1,258 Descending Minneapolis Center
Fri 04:24:14 PM 45.2794 -84.6331 339° North 282 325 7,200 -1,258 Descending Minneapolis Center
Fri 04:25:16 PM 45.3500 -84.6722 339° North 277 319 5,800 -1,887 Descending Minneapolis Center
Fri 04:26:18 PM 45.4278 -84.6847 354° North 264 304 3,300 -2,419 Descending Minneapolis Center
Fri 04:28:00 PM 45.5667 -84.7833 347° North  Level FlightAware Approximate
Fri 04:35:00 PM 45.5709 -84.7967 347° North  Level Estimated
Fri 04:36:00 PM 45.5709 -84.7967 347° North  Level Estimated

Login

Don't have an account? Register now (free) for customized features, flight alerts, and more!